Aldie, VA (20105)

2:44 PM EDT on April 27, 2017 (GMT -0400)
Bull Run Mountain | | Change Station

Elev 850 ft 38.93 °N, 77.66 °W | Updated 2 seconds ago

Partly Cloudy
Partly Cloudy
77.5 °F
Feels Like 79 °F
N
6.0
Wind Variable Wind from ESE
Gusts 7.4 mph

Today
High -- | Low -- °F
--% Chance of Precip.
Yesterday
High -- | Low -- °F
Precip. -- in
Pressure 29.79 in
Visibility 10.0 miles
Clouds Scattered Clouds 3400 ft
Scattered Clouds 4300 ft
Heat Index 79 °F
Dew Point 60 °F
Humidity 55%
Rainfall 0.00 in
Snow Depth Not available.
6:17 AM 7:59 PM
New, 2% visible
METAR KJYO 271835Z AUTO 21014G19KT 10SM SCT034 SCT043 28/19 A2979 RMK AO2
Pressure 29.79 in
Visibility 10.0 miles
Clouds Scattered Clouds 3400 ft
Scattered Clouds 4300 ft
Heat Index 79 °F
Dew Point 60 °F
Humidity 55%
Rainfall 0.00 in
Snow Depth Not available.
6:17 AM 7:59 PM
New, 2% visible
METAR KJYO 271835Z AUTO 21014G19KT 10SM SCT034 SCT043 28/19 A2979 RMK AO2

Get Severe Weather Alerts

Thanks for signing up!

Be on the lookout for a verification email in your inbox.

You'll start receiving the daily forecast at 8 AM.

×

10-Day Weather Forecast

Almanac

Astronomy

Apr. 27, 2017 Rise Set
Actual Time
Civil Twilight
Nautical Twilight
Astronomical Twilight
Moon
Length Of Visible Light
Length of Day
Tomorrow will be .
, % of the Moon is Illuminated

Today's Extremes

State Highs State Lows

Community

WunderPhotos

WunderBlog® & News

Nearby

Air Quality

  Air Quality AQ Index Pollutant
Not available.

Snow Depth

Station Depth Elevation

Earthquake Activity

City Distance Mag. Time & Date
Minimum magnitude displayed is 2.5.

Coastal Water Temperatures

Place Temperature

Stations

Nearby Weather Stations

Station Location Temp Windchill Dew Point Humidity Wind Precip. Elev Updated Type
                   

Watches & Warnings

There are currently no watches in effect.